createdAt,value
2019-05-20T00:02:23.543Z,14.48
2019-05-20T00:04:45.711Z,14.49
2019-05-20T00:07:14.446Z,14.51
2019-05-20T00:09:43.166Z,14.54
2019-05-20T00:12:11.680Z,14.57
2019-05-20T00:14:40.149Z,14.58
2019-05-20T00:17:08.838Z,14.56
2019-05-20T00:19:37.291Z,14.54
2019-05-20T00:22:05.719Z,14.48
2019-05-20T00:24:34.508Z,14.47
2019-05-20T00:27:06.166Z,14.48
2019-05-20T00:29:34.614Z,14.49
2019-05-20T00:32:03.460Z,14.46
2019-05-20T00:34:35.185Z,14.45
2019-05-20T00:37:02.432Z,14.45
2019-05-20T00:39:30.997Z,14.45
2019-05-20T00:41:59.476Z,14.42
2019-05-20T00:44:27.900Z,14.37
2019-05-20T00:46:56.760Z,14.32
2019-05-20T00:49:25.402Z,14.28
2019-05-20T00:51:53.921Z,14.26
2019-05-20T00:54:22.677Z,14.22
2019-05-20T00:56:52.886Z,14.18
2019-05-20T00:59:21.509Z,14.13
2019-05-20T01:01:53.257Z,14.10
2019-05-20T01:04:21.775Z,14.07
2019-05-20T01:06:50.211Z,14.03
2019-05-20T01:09:18.694Z,13.98
2019-05-20T01:11:48.429Z,13.96
2019-05-20T01:14:16.894Z,13.92
2019-05-20T01:16:45.405Z,13.91
2019-05-20T01:19:13.902Z,13.90
2019-05-20T01:21:42.359Z,13.90
2019-05-20T01:24:10.855Z,13.90
2019-05-20T01:26:39.295Z,13.88
2019-05-20T01:29:07.977Z,13.85
2019-05-20T01:31:36.725Z,13.82
2019-05-20T01:34:07.934Z,13.77
2019-05-20T01:36:36.507Z,13.75
2019-05-20T01:39:06.893Z,13.72
2019-05-20T01:41:35.323Z,13.71
2019-05-20T01:44:04.033Z,13.71
2019-05-20T01:46:32.494Z,13.71
2019-05-20T01:49:01.192Z,13.71
2019-05-20T01:51:29.630Z,13.70
2019-05-20T01:53:58.568Z,13.69
2019-05-20T01:56:27.011Z,13.72
2019-05-20T01:58:55.639Z,13.72
2019-05-20T02:01:24.117Z,13.76
2019-05-20T02:03:52.565Z,13.78
2019-05-20T02:06:21.081Z,13.79
2019-05-20T02:08:49.567Z,13.84
2019-05-20T02:11:18.121Z,13.86
2019-05-20T02:14:00.257Z,13.85
2019-05-20T02:16:29.374Z,13.82
2019-05-20T02:18:58.027Z,13.81
2019-05-20T02:21:28.013Z,13.78
2019-05-20T02:23:56.507Z,13.76
2019-05-20T02:26:25.540Z,13.72
2019-05-20T02:28:54.132Z,13.67
2019-05-20T02:31:22.668Z,13.64
2019-05-20T02:33:52.948Z,13.63
2019-05-20T02:36:21.504Z,13.61
2019-05-20T02:38:51.985Z,13.61
2019-05-20T02:41:20.429Z,13.61
2019-05-20T02:43:49.215Z,13.61
2019-05-20T02:46:19.422Z,13.60
2019-05-20T02:48:50.644Z,13.59
2019-05-20T02:51:23.506Z,13.56
2019-05-20T02:53:51.933Z,13.52
2019-05-20T02:56:20.388Z,13.50
2019-05-20T02:58:49.526Z,13.49
2019-05-20T03:01:26.785Z,13.48
2019-05-20T03:04:10.649Z,13.49
2019-05-20T03:06:25.627Z,13.47
2019-05-20T03:08:54.055Z,13.45
2019-05-20T03:11:22.517Z,13.44
2019-05-20T03:13:50.957Z,13.44
2019-05-20T03:16:19.519Z,13.42
2019-05-20T03:18:48.007Z,13.41
2019-05-20T03:21:16.431Z,13.37
2019-05-20T03:23:45.159Z,13.38
2019-05-20T03:26:13.866Z,13.40
2019-05-20T03:28:42.300Z,13.43
2019-05-20T03:31:10.818Z,13.49
2019-05-20T03:33:39.517Z,13.50
2019-05-20T03:36:08.401Z,13.49
2019-05-20T03:38:36.839Z,13.50
2019-05-20T03:41:05.455Z,13.51
2019-05-20T03:43:33.942Z,13.55
2019-05-20T03:46:02.412Z,13.56
2019-05-20T03:48:31.260Z,13.57
2019-05-20T03:50:59.698Z,13.57
2019-05-20T03:53:28.213Z,13.58
2019-05-20T03:55:57.151Z,13.57
2019-05-20T03:58:27.355Z,13.59
2019-05-20T04:00:56.129Z,13.61
2019-05-20T04:03:26.255Z,13.64
2019-05-20T04:05:54.654Z,13.64
2019-05-20T04:08:23.608Z,13.63
2019-05-20T04:10:52.238Z,13.66
2019-05-20T04:13:21.179Z,13.67
2019-05-20T04:15:49.643Z,13.63
2019-05-20T04:18:18.354Z,13.63
2019-05-20T04:20:49.599Z,13.61
2019-05-20T04:23:18.199Z,13.61
2019-05-20T04:25:47.458Z,13.65
2019-05-20T04:28:15.909Z,13.66
2019-05-20T04:30:44.401Z,13.66
2019-05-20T04:33:12.983Z,13.65
2019-05-20T04:35:43.268Z,13.63
2019-05-20T04:38:11.781Z,13.59
2019-05-20T04:40:40.996Z,13.57
2019-05-20T04:43:12.306Z,13.57
2019-05-20T04:45:41.034Z,13.60
2019-05-20T04:48:13.414Z,13.62
2019-05-20T04:50:39.904Z,13.62
2019-05-20T04:53:08.610Z,13.63
2019-05-20T04:55:37.319Z,13.65
2019-05-20T04:58:05.750Z,13.67
2019-05-20T05:00:52.239Z,13.70
2019-05-20T05:03:21.214Z,13.75
2019-05-20T05:05:50.959Z,13.78
2019-05-20T05:08:21.152Z,13.79
2019-05-20T05:10:50.398Z,13.85
2019-05-20T05:13:19.615Z,13.93
2019-05-20T05:15:48.404Z,14.00
2019-05-20T05:18:17.113Z,14.06
2019-05-20T05:20:45.675Z,14.11
2019-05-20T05:23:14.487Z,14.16
2019-05-20T05:25:42.920Z,14.19
2019-05-20T05:28:11.519Z,14.22
2019-05-20T05:30:40.984Z,14.25
2019-05-20T05:33:09.559Z,14.28
2019-05-20T05:35:52.198Z,14.29
2019-05-20T05:38:08.874Z,14.28
2019-05-20T05:40:37.267Z,14.28
2019-05-20T05:43:05.709Z,14.31
2019-05-20T05:45:34.493Z,14.38
2019-05-20T05:48:03.135Z,14.45
2019-05-20T05:50:31.647Z,14.51
2019-05-20T05:53:00.200Z,14.55
2019-05-20T05:55:28.719Z,14.58
2019-05-20T05:57:57.151Z,14.59
2019-05-20T06:00:26.116Z,14.64
2019-05-20T06:02:54.673Z,14.68
2019-05-20T06:05:23.121Z,14.73
2019-05-20T06:07:51.740Z,14.73
2019-05-20T06:10:20.786Z,14.73
2019-05-20T06:12:49.223Z,14.76
2019-05-20T06:15:18.526Z,14.77
2019-05-20T06:17:47.052Z,14.78
2019-05-20T06:20:16.616Z,14.78
2019-05-20T06:22:48.626Z,14.82
2019-05-20T06:25:19.018Z,14.92
2019-05-20T06:27:47.468Z,14.98
2019-05-20T06:30:16.672Z,15.02
2019-05-20T06:32:45.167Z,15.08
2019-05-20T06:35:15.470Z,15.20
2019-05-20T06:37:51.305Z,15.30
2019-05-20T06:40:20.093Z,15.40
2019-05-20T06:42:48.594Z,15.45
2019-05-20T06:45:17.463Z,15.48
2019-05-20T06:47:45.916Z,15.49
2019-05-20T06:50:14.577Z,15.49
2019-05-20T06:52:43.061Z,15.53
2019-05-20T06:55:12.134Z,15.62
2019-05-20T06:57:40.739Z,15.66
2019-05-20T07:00:10.219Z,15.65
2019-05-20T07:02:38.654Z,15.65
2019-05-20T07:05:08.203Z,15.67
2019-05-20T07:07:36.694Z,15.69
2019-05-20T07:10:07.474Z,15.70
2019-05-20T07:12:41.264Z,15.73
2019-05-20T07:15:07.983Z,15.72
2019-05-20T07:17:36.431Z,15.73
2019-05-20T07:20:06.666Z,15.72
2019-05-20T07:22:53.870Z,15.73
2019-05-20T07:25:06.816Z,15.77
2019-05-20T07:27:35.318Z,15.81
2019-05-20T07:30:08.021Z,15.89
2019-05-20T07:32:50.568Z,16.01
2019-05-20T07:35:29.638Z,16.13
2019-05-20T07:37:49.825Z,16.27
2019-05-20T07:40:30.186Z,16.36
2019-05-20T07:43:09.832Z,16.46
2019-05-20T07:45:39.823Z,16.62
2019-05-20T07:48:21.534Z,16.75
2019-05-20T07:50:58.489Z,16.84
2019-05-20T07:53:35.655Z,16.91
2019-05-20T07:56:12.700Z,16.99
2019-05-20T07:58:47.684Z,17.01
2019-05-20T08:01:19.740Z,16.99
2019-05-20T08:03:51.783Z,17.03
2019-05-20T08:06:23.548Z,17.07
2019-05-20T08:08:55.916Z,17.08
2019-05-20T08:11:26.823Z,17.08
2019-05-20T08:14:03.763Z,17.11
2019-05-20T08:16:38.327Z,17.21
2019-05-20T08:19:11.046Z,17.31
2019-05-20T08:21:45.084Z,17.40
2019-05-20T08:24:16.263Z,17.48
2019-05-20T08:26:56.969Z,17.48
2019-05-20T08:32:18.124Z,17.68
2019-05-20T08:34:48.916Z,17.86
2019-05-20T08:37:21.618Z,17.96
2019-05-20T08:39:51.635Z,18.12
2019-05-20T08:42:22.499Z,18.31
2019-05-20T08:44:54.730Z,18.41
2019-05-20T08:47:28.627Z,18.43
2019-05-20T08:49:59.582Z,18.48
2019-05-20T08:52:29.324Z,18.57
2019-05-20T08:55:08.064Z,18.61
2019-05-20T08:57:41.534Z,18.62
2019-05-20T09:00:22.993Z,18.63
2019-05-20T09:02:48.883Z,18.60
2019-05-20T09:05:20.704Z,18.64
2019-05-20T09:08:02.130Z,18.69
2019-05-20T09:10:23.377Z,18.78
2019-05-20T09:12:53.220Z,18.91
2019-05-20T09:15:22.426Z,19.01
2019-05-20T09:17:58.998Z,19.18
2019-05-20T09:20:28.817Z,19.33
2019-05-20T09:23:02.371Z,19.54
2019-05-20T09:25:31.674Z,19.69
2019-05-20T09:28:04.395Z,19.80
2019-05-20T09:30:39.265Z,19.87
2019-05-20T09:33:08.929Z,19.84
2019-05-20T09:35:46.046Z,19.81
2019-05-20T09:38:21.537Z,19.81
2019-05-20T09:40:51.954Z,19.81
2019-05-20T09:43:21.500Z,19.78
2019-05-20T09:46:06.359Z,19.72
2019-05-20T09:48:31.938Z,19.71
2019-05-20T09:51:04.669Z,19.81
2019-05-20T09:53:34.189Z,19.95
2019-05-20T09:56:03.437Z,20.13
2019-05-20T09:58:33.096Z,20.16
2019-05-20T10:01:02.900Z,20.20
2019-05-20T10:03:32.689Z,20.21
2019-05-20T10:06:01.896Z,20.28
2019-05-20T10:08:38.880Z,20.28
2019-05-20T10:11:01.470Z,20.22
2019-05-20T10:13:35.462Z,20.22
2019-05-20T10:16:06.102Z,20.32
2019-05-20T10:18:38.109Z,20.41
2019-05-20T10:21:06.704Z,20.50
2019-05-20T10:23:38.153Z,20.67
2019-05-20T10:26:09.750Z,20.84
2019-05-20T10:28:42.068Z,21.06
2019-05-20T10:31:09.052Z,21.17
2019-05-20T10:33:37.955Z,21.17
2019-05-20T10:36:06.856Z,21.14
2019-05-20T10:38:35.559Z,21.09
2019-05-20T10:41:04.384Z,21.06
2019-05-20T10:43:33.046Z,21.14
2019-05-20T10:46:02.017Z,21.26
2019-05-20T10:48:31.405Z,21.24
2019-05-20T10:51:00.452Z,21.12
2019-05-20T10:53:29.150Z,21.10
2019-05-20T10:55:59.003Z,21.17
2019-05-20T10:58:28.126Z,21.38
2019-05-20T11:01:03.675Z,21.61
2019-05-20T11:03:29.360Z,21.71
2019-05-20T11:05:57.966Z,21.81
2019-05-20T11:08:29.812Z,21.86
2019-05-20T11:13:52.540Z,21.95
2019-05-20T11:16:22.411Z,22.09
2019-05-20T11:18:50.954Z,22.18
2019-05-20T11:21:20.184Z,22.20
2019-05-20T11:23:49.637Z,22.07
2019-05-20T11:26:19.856Z,22.01
2019-05-20T11:28:49.237Z,22.13
2019-05-20T11:31:18.748Z,22.23
2019-05-20T11:33:48.445Z,22.37
2019-05-20T11:36:20.837Z,22.41
2019-05-20T11:38:50.041Z,22.48
2019-05-20T11:41:19.087Z,22.58
2019-05-20T11:43:48.924Z,22.61
2019-05-20T11:46:19.422Z,22.69
2019-05-20T11:48:48.925Z,22.78
2019-05-20T11:51:19.212Z,22.81
2019-05-20T11:53:48.758Z,22.84
2019-05-20T11:56:19.427Z,22.93
2019-05-20T11:58:49.799Z,23.00
2019-05-20T12:01:21.409Z,22.93
2019-05-20T12:03:51.030Z,22.87
2019-05-20T12:06:20.138Z,22.87
2019-05-20T12:08:49.546Z,22.90
2019-05-20T12:11:18.558Z,22.94
2019-05-20T12:13:47.902Z,22.98
2019-05-20T12:16:18.567Z,23.01
2019-05-20T12:18:47.558Z,23.09
2019-05-20T12:21:22.589Z,23.18
2019-05-20T12:23:53.135Z,23.21
2019-05-20T12:26:22.967Z,23.24
2019-05-20T12:28:54.543Z,23.30
2019-05-20T12:31:25.738Z,23.31
2019-05-20T12:33:56.398Z,23.30
2019-05-20T12:36:26.184Z,23.33
2019-05-20T12:38:57.473Z,23.40
2019-05-20T12:41:26.641Z,23.45
2019-05-20T12:44:10.875Z,23.61
2019-05-20T12:46:28.998Z,23.74
2019-05-20T12:49:02.665Z,23.82
2019-05-20T12:51:33.406Z,23.90
2019-05-20T12:54:05.368Z,23.93
2019-05-20T12:56:35.949Z,24.00
2019-05-20T12:59:06.096Z,24.05
2019-05-20T13:01:36.582Z,24.23
2019-05-20T13:04:05.674Z,24.44
2019-05-20T13:06:34.866Z,24.66
2019-05-20T13:09:05.592Z,24.91
2019-05-20T13:11:34.601Z,25.03
2019-05-20T13:14:03.678Z,25.12
2019-05-20T13:16:32.478Z,25.27
2019-05-20T13:19:01.104Z,25.44
2019-05-20T13:21:31.779Z,25.58
2019-05-20T13:24:00.621Z,25.77
2019-05-20T13:26:29.246Z,26.04
2019-05-20T13:29:00.032Z,26.26
2019-05-20T13:31:28.859Z,26.42
2019-05-20T13:33:57.647Z,26.58
2019-05-20T13:36:26.856Z,26.70
2019-05-20T13:38:55.728Z,26.88
2019-05-20T13:41:24.283Z,27.14
2019-05-20T13:43:53.136Z,27.34
2019-05-20T13:46:21.668Z,27.42
2019-05-20T13:48:50.267Z,27.49
2019-05-20T13:51:21.452Z,27.49
2019-05-20T13:53:50.201Z,27.57
2019-05-20T13:56:18.671Z,27.68
2019-05-20T13:58:47.120Z,27.65
2019-05-20T14:01:15.565Z,27.53
2019-05-20T14:03:44.066Z,27.50
2019-05-20T14:06:12.595Z,27.61
2019-05-20T14:08:42.553Z,27.68
2019-05-20T14:11:10.979Z,27.62
2019-05-20T14:13:39.443Z,27.70
2019-05-20T14:16:07.877Z,27.79
2019-05-20T14:18:40.567Z,27.92
2019-05-20T14:21:09.415Z,27.94
2019-05-20T14:23:43.508Z,27.87
2019-05-20T14:26:12.563Z,27.90
2019-05-20T14:28:42.528Z,27.97
2019-05-20T14:31:15.663Z,27.98
2019-05-20T14:33:50.203Z,27.97
2019-05-20T14:36:38.412Z,28.07
2019-05-20T14:38:52.159Z,28.12
2019-05-20T14:41:27.421Z,28.12
2019-05-20T14:43:56.346Z,28.17
2019-05-20T14:46:25.332Z,28.24
2019-05-20T14:48:56.254Z,28.39
2019-05-20T14:51:25.268Z,28.43
2019-05-20T14:53:55.859Z,28.33
2019-05-20T14:56:27.798Z,28.21
2019-05-20T14:58:56.969Z,27.91
2019-05-20T15:01:26.547Z,27.54
2019-05-20T15:03:55.235Z,27.38
2019-05-20T15:06:26.632Z,27.40
2019-05-20T15:08:55.206Z,27.37
2019-05-20T15:11:37.666Z,27.11
2019-05-20T15:14:00.332Z,26.87
2019-05-20T15:16:29.138Z,26.67
2019-05-20T15:18:57.801Z,26.45
2019-05-20T15:21:29.479Z,26.33
2019-05-20T15:23:57.132Z,26.28
2019-05-20T15:26:25.668Z,26.30
2019-05-20T15:28:54.166Z,26.31
2019-05-20T15:31:22.886Z,26.19
2019-05-20T15:33:51.330Z,25.98
2019-05-20T15:36:19.806Z,25.77
2019-05-20T15:38:48.266Z,25.54
2019-05-20T15:41:16.681Z,25.30
2019-05-20T15:43:48.640Z,25.15
2019-05-20T15:46:17.153Z,25.08
2019-05-20T15:48:45.606Z,25.22
2019-05-20T15:51:14.190Z,25.51
2019-05-20T15:53:42.940Z,25.86
2019-05-20T15:56:11.361Z,26.20
2019-05-20T15:58:39.847Z,26.57
2019-05-20T16:01:08.311Z,26.89
2019-05-20T16:03:37.029Z,27.16
2019-05-20T16:06:08.596Z,27.38
2019-05-20T16:08:37.178Z,27.45
2019-05-20T16:11:07.069Z,27.51
2019-05-20T16:13:35.775Z,27.64
2019-05-20T16:16:06.511Z,27.72
2019-05-20T16:18:36.802Z,27.58
2019-05-20T16:21:05.322Z,27.34
2019-05-20T16:23:33.819Z,26.96
2019-05-20T16:26:02.469Z,26.50
2019-05-20T16:28:31.000Z,26.12
2019-05-20T16:31:02.813Z,25.86
2019-05-20T16:33:31.804Z,25.66
2019-05-20T16:36:01.019Z,25.51
2019-05-20T16:38:30.222Z,25.43
2019-05-20T16:41:00.409Z,25.30
2019-05-20T16:43:30.055Z,25.15
2019-05-20T16:45:59.522Z,25.03
2019-05-20T16:48:28.617Z,24.87
2019-05-20T16:50:59.722Z,24.72
2019-05-20T16:53:30.992Z,24.68
2019-05-20T16:56:06.416Z,24.69
2019-05-20T16:58:44.698Z,24.67
2019-05-20T17:01:16.454Z,24.68
2019-05-20T17:03:48.500Z,24.69
2019-05-20T17:06:19.679Z,24.74
2019-05-20T17:08:51.381Z,24.77
2019-05-20T17:11:19.863Z,24.78
2019-05-20T17:13:48.936Z,24.82
2019-05-20T17:16:20.675Z,24.87
2019-05-20T17:18:49.612Z,24.93
2019-05-20T17:21:18.792Z,24.94
2019-05-20T17:23:49.078Z,24.95
2019-05-20T17:26:18.258Z,24.98
2019-05-20T17:28:47.309Z,24.95
2019-05-20T17:31:18.782Z,24.88
2019-05-20T17:33:51.155Z,24.76
2019-05-20T17:36:21.475Z,24.61
2019-05-20T17:38:50.408Z,24.44
2019-05-20T17:41:19.377Z,24.27
2019-05-20T17:43:48.535Z,24.14
2019-05-20T17:46:17.606Z,24.03
2019-05-20T17:48:49.682Z,23.86
2019-05-20T17:51:18.882Z,23.69
2019-05-20T17:53:52.618Z,23.52
2019-05-20T17:56:24.642Z,23.37
2019-05-20T17:58:57.161Z,23.24
2019-05-20T18:01:31.551Z,23.10
2019-05-20T18:04:10.287Z,23.02
2019-05-20T18:06:39.443Z,22.98
2019-05-20T18:09:12.884Z,22.99
2019-05-20T18:11:46.147Z,23.00
2019-05-20T18:14:15.300Z,23.00
2019-05-20T18:16:44.818Z,22.96
2019-05-20T18:19:15.515Z,22.85
2019-05-20T18:21:44.890Z,22.77
2019-05-20T18:24:14.231Z,22.71
2019-05-20T18:26:42.926Z,22.66
2019-05-20T18:29:11.958Z,22.62
2019-05-20T18:31:41.051Z,22.59
2019-05-20T18:34:10.172Z,22.55
2019-05-20T18:36:39.227Z,22.45
2019-05-20T18:39:08.535Z,22.38
2019-05-20T18:41:38.984Z,22.30
2019-05-20T18:44:07.968Z,22.20
2019-05-20T18:46:37.212Z,22.09
2019-05-20T18:49:05.848Z,21.99
2019-05-20T18:51:34.873Z,21.92
2019-05-20T18:54:04.746Z,21.85
2019-05-20T18:56:34.076Z,21.80
2019-05-20T18:59:05.137Z,21.73
2019-05-20T19:01:50.567Z,21.68
2019-05-20T19:04:07.535Z,21.63
2019-05-20T19:06:37.012Z,21.53
2019-05-20T19:09:08.758Z,21.47
2019-05-20T19:11:36.655Z,21.42
2019-05-20T19:14:08.317Z,21.35
2019-05-20T19:16:38.036Z,21.27
2019-05-20T19:19:09.804Z,21.21
2019-05-20T19:21:41.422Z,21.13
2019-05-20T19:24:12.250Z,21.08
2019-05-20T19:26:44.270Z,21.02
2019-05-20T19:29:13.411Z,20.96
2019-05-20T19:31:42.848Z,20.91
2019-05-20T19:34:19.249Z,20.85
2019-05-20T19:36:48.327Z,20.82
2019-05-20T19:39:17.133Z,20.77
2019-05-20T19:41:46.749Z,20.74
2019-05-20T19:44:15.384Z,20.71
2019-05-20T19:46:45.388Z,20.68
2019-05-20T19:49:13.854Z,20.66
2019-05-20T19:51:42.456Z,20.59
2019-05-20T19:54:10.988Z,20.57
2019-05-20T19:56:39.615Z,20.53
2019-05-20T19:59:08.485Z,20.50
2019-05-20T20:01:37.257Z,20.44
2019-05-20T20:04:06.116Z,20.40
2019-05-20T20:06:36.330Z,20.36
2019-05-20T20:09:09.217Z,20.32
2019-05-20T20:11:38.019Z,20.29
2019-05-20T20:14:06.794Z,20.24
2019-05-20T20:16:38.272Z,20.21
2019-05-20T20:19:06.808Z,20.17
2019-05-20T20:21:35.255Z,20.14
2019-05-20T20:24:03.668Z,20.09
2019-05-20T20:26:32.462Z,20.08
2019-05-20T20:29:01.051Z,20.05
2019-05-20T20:31:29.780Z,20.02
2019-05-20T20:33:58.474Z,19.99
2019-05-20T20:36:26.904Z,19.96
2019-05-20T20:38:56.115Z,19.94
2019-05-20T20:41:24.561Z,19.91
2019-05-20T20:43:53.026Z,19.88
2019-05-20T20:46:21.462Z,19.85
2019-05-20T20:48:49.937Z,19.83
2019-05-20T20:51:18.895Z,19.79
2019-05-20T20:53:49.726Z,19.76
2019-05-20T20:56:25.316Z,19.73
2019-05-20T20:58:48.354Z,19.68
2019-05-20T21:01:16.821Z,19.67
2019-05-20T21:03:45.496Z,19.66
2019-05-20T21:06:13.903Z,19.65
2019-05-20T21:08:42.645Z,19.64
2019-05-20T21:11:11.188Z,19.62
2019-05-20T21:13:39.609Z,19.60
2019-05-20T21:16:08.019Z,19.59
2019-05-20T21:18:36.607Z,19.58
2019-05-20T21:21:05.038Z,19.55
2019-05-20T21:23:33.459Z,19.56
2019-05-20T21:26:04.960Z,19.55
2019-05-20T21:28:33.758Z,19.54
2019-05-20T21:31:02.236Z,19.54
2019-05-20T21:33:30.772Z,19.55
2019-05-20T21:35:59.212Z,19.55
2019-05-20T21:38:27.688Z,19.52
2019-05-20T21:40:56.125Z,19.52
2019-05-20T21:43:24.585Z,19.51
2019-05-20T21:45:53.061Z,19.49
2019-05-20T21:48:21.831Z,19.47
2019-05-20T21:50:50.888Z,19.45
2019-05-20T21:53:19.361Z,19.43
2019-05-20T21:55:47.909Z,19.42
2019-05-20T21:58:16.337Z,19.41
2019-05-20T22:00:49.832Z,19.42
2019-05-20T22:03:24.443Z,19.40
2019-05-20T22:05:48.806Z,19.38
2019-05-20T22:08:17.301Z,19.34
2019-05-20T22:10:45.762Z,19.32
2019-05-20T22:13:14.705Z,19.29
2019-05-20T22:15:43.138Z,19.24
2019-05-20T22:18:11.708Z,19.19
2019-05-20T22:20:40.151Z,19.16
2019-05-20T22:23:16.121Z,19.11
2019-05-20T22:25:46.454Z,19.05
2019-05-20T22:28:14.935Z,18.98
2019-05-20T22:30:43.396Z,18.96
2019-05-20T22:33:12.088Z,18.93
2019-05-20T22:35:40.547Z,18.89
2019-05-20T22:38:09.157Z,18.87
2019-05-20T22:40:37.812Z,18.84
2019-05-20T22:43:06.236Z,18.80
2019-05-20T22:45:34.864Z,18.77
2019-05-20T22:48:03.303Z,18.75
2019-05-20T22:50:33.306Z,18.71
2019-05-20T22:53:03.999Z,18.69
2019-05-20T22:55:32.888Z,18.67
2019-05-20T22:58:01.409Z,18.64
2019-05-20T23:00:29.941Z,18.64
2019-05-20T23:02:58.369Z,18.61
2019-05-20T23:05:27.020Z,18.60
2019-05-20T23:07:55.721Z,18.59
2019-05-20T23:10:35.861Z,18.57
2019-05-20T23:13:04.349Z,18.57
2019-05-20T23:15:35.634Z,18.57
2019-05-20T23:18:04.907Z,18.57
2019-05-20T23:20:33.372Z,18.55
2019-05-20T23:23:07.745Z,18.49
2019-05-20T23:25:36.238Z,18.45
2019-05-20T23:28:07.589Z,18.39
2019-05-20T23:30:37.183Z,18.37
2019-05-20T23:33:07.285Z,18.33
2019-05-20T23:35:35.998Z,18.31
2019-05-20T23:38:05.010Z,18.28
2019-05-20T23:40:33.728Z,18.26
2019-05-20T23:43:02.230Z,18.23
2019-05-20T23:45:36.535Z,18.19
2019-05-20T23:48:05.724Z,18.16
2019-05-20T23:50:34.444Z,18.12
2019-05-20T23:53:03.013Z,18.06
2019-05-20T23:55:31.556Z,18.02
2019-05-20T23:58:00.171Z,18.00
